sensor_id;sensor_type;location;lat;lon;timestamp;temperature;humidity
69328;DHT22;56472;52.114;5.492;2023-02-15T00:01:57;6.40;69.70
69328;DHT22;56472;52.114;5.492;2023-02-15T00:04:25;6.30;69.60
69328;DHT22;56472;52.114;5.492;2023-02-15T00:07:14;6.30;69.60
69328;DHT22;56472;52.114;5.492;2023-02-15T00:09:41;6.30;70.40
69328;DHT22;56472;52.114;5.492;2023-02-15T00:12:09;6.30;69.40
69328;DHT22;56472;52.114;5.492;2023-02-15T00:14:36;6.30;69.40
69328;DHT22;56472;52.114;5.492;2023-02-15T00:17:03;6.20;69.30
69328;DHT22;56472;52.114;5.492;2023-02-15T00:19:30;6.30;69.30
69328;DHT22;56472;52.114;5.492;2023-02-15T00:21:57;6.20;69.30
69328;DHT22;56472;52.114;5.492;2023-02-15T00:24:24;6.20;69.30
69328;DHT22;56472;52.114;5.492;2023-02-15T00:26:51;6.20;69.30
69328;DHT22;56472;52.114;5.492;2023-02-15T00:29:19;6.10;69.30
69328;DHT22;56472;52.114;5.492;2023-02-15T00:31:46;6.20;69.40
69328;DHT22;56472;52.114;5.492;2023-02-15T00:34:21;6.10;69.40
69328;DHT22;56472;52.114;5.492;2023-02-15T00:36:49;6.10;69.50
69328;DHT22;56472;52.114;5.492;2023-02-15T00:39:17;6.10;69.50
69328;DHT22;56472;52.114;5.492;2023-02-15T00:41:45;6.10;69.60
69328;DHT22;56472;52.114;5.492;2023-02-15T00:44:13;6.00;69.50
69328;DHT22;56472;52.114;5.492;2023-02-15T00:46:39;6.00;69.50
69328;DHT22;56472;52.114;5.492;2023-02-15T00:49:08;6.00;69.60
69328;DHT22;56472;52.114;5.492;2023-02-15T00:51:37;6.00;69.60
69328;DHT22;56472;52.114;5.492;2023-02-15T00:54:04;6.00;69.60
69328;DHT22;56472;52.114;5.492;2023-02-15T00:56:31;6.00;69.70
69328;DHT22;56472;52.114;5.492;2023-02-15T00:58:58;6.00;69.80
69328;DHT22;56472;52.114;5.492;2023-02-15T01:01:26;6.00;69.90
69328;DHT22;56472;52.114;5.492;2023-02-15T01:03:53;6.00;70.00
69328;DHT22;56472;52.114;5.492;2023-02-15T01:06:20;5.90;69.80
69328;DHT22;56472;52.114;5.492;2023-02-15T01:08:47;5.90;69.80
69328;DHT22;56472;52.114;5.492;2023-02-15T01:11:17;5.90;69.80
69328;DHT22;56472;52.114;5.492;2023-02-15T01:14:08;5.90;70.00
69328;DHT22;56472;52.114;5.492;2023-02-15T01:16:37;5.90;69.90
69328;DHT22;56472;52.114;5.492;2023-02-15T01:19:05;5.90;69.90
69328;DHT22;56472;52.114;5.492;2023-02-15T01:21:32;5.80;70.00
69328;DHT22;56472;52.114;5.492;2023-02-15T01:24:02;5.80;70.00
69328;DHT22;56472;52.114;5.492;2023-02-15T01:26:29;5.80;70.00
69328;DHT22;56472;52.114;5.492;2023-02-15T01:28:57;5.80;70.00
69328;DHT22;56472;52.114;5.492;2023-02-15T01:31:24;5.70;69.90
69328;DHT22;56472;52.114;5.492;2023-02-15T01:33:51;5.70;69.90
69328;DHT22;56472;52.114;5.492;2023-02-15T01:36:18;5.70;69.90
69328;DHT22;56472;52.114;5.492;2023-02-15T01:38:45;5.60;69.80
69328;DHT22;56472;52.114;5.492;2023-02-15T01:41:12;5.60;70.00
69328;DHT22;56472;52.114;5.492;2023-02-15T01:43:59;5.60;70.10
69328;DHT22;56472;52.114;5.492;2023-02-15T01:46:35;5.50;70.00
69328;DHT22;56472;52.114;5.492;2023-02-15T01:49:08;5.50;70.00
69328;DHT22;56472;52.114;5.492;2023-02-15T01:51:38;5.50;70.00
69328;DHT22;56472;52.114;5.492;2023-02-15T01:54:15;5.50;70.00
69328;DHT22;56472;52.114;5.492;2023-02-15T01:56:44;5.40;70.00
69328;DHT22;56472;52.114;5.492;2023-02-15T01:59:15;5.40;70.00
69328;DHT22;56472;52.114;5.492;2023-02-15T02:01:44;5.40;70.00
69328;DHT22;56472;52.114;5.492;2023-02-15T02:04:17;5.40;70.10
69328;DHT22;56472;52.114;5.492;2023-02-15T02:06:46;5.40;70.00
69328;DHT22;56472;52.114;5.492;2023-02-15T02:09:15;5.40;70.20
69328;DHT22;56472;52.114;5.492;2023-02-15T02:11:45;5.30;70.20
69328;DHT22;56472;52.114;5.492;2023-02-15T02:14:12;5.30;70.20
69328;DHT22;56472;52.114;5.492;2023-02-15T02:35:53;5.20;70.50
69328;DHT22;56472;52.114;5.492;2023-02-15T02:44:25;5.10;70.60
69328;DHT22;56472;52.114;5.492;2023-02-15T02:46:58;5.10;70.70
69328;DHT22;56472;52.114;5.492;2023-02-15T02:49:33;5.10;70.80
69328;DHT22;56472;52.114;5.492;2023-02-15T02:52:03;5.10;71.00
69328;DHT22;56472;52.114;5.492;2023-02-15T02:54:34;5.10;71.20
69328;DHT22;56472;52.114;5.492;2023-02-15T02:57:04;5.20;71.50
69328;DHT22;56472;52.114;5.492;2023-02-15T02:59:42;5.20;71.60
69328;DHT22;56472;52.114;5.492;2023-02-15T03:02:25;5.20;71.90
69328;DHT22;56472;52.114;5.492;2023-02-15T03:04:59;5.20;72.10
69328;DHT22;56472;52.114;5.492;2023-02-15T03:07:31;5.20;72.20
69328;DHT22;56472;52.114;5.492;2023-02-15T03:10:02;5.30;72.30
69328;DHT22;56472;52.114;5.492;2023-02-15T03:12:33;5.30;72.50
69328;DHT22;56472;52.114;5.492;2023-02-15T03:15:24;5.30;72.70
69328;DHT22;56472;52.114;5.492;2023-02-15T03:17:56;5.30;72.50
69328;DHT22;56472;52.114;5.492;2023-02-15T03:20:29;5.30;72.20
69328;DHT22;56472;52.114;5.492;2023-02-15T03:23:16;5.30;72.10
69328;DHT22;56472;52.114;5.492;2023-02-15T03:25:48;5.30;72.20
69328;DHT22;56472;52.114;5.492;2023-02-15T03:28:20;5.30;72.30
69328;DHT22;56472;52.114;5.492;2023-02-15T03:30:52;5.30;72.50
69328;DHT22;56472;52.114;5.492;2023-02-15T03:33:22;5.40;72.70
69328;DHT22;56472;52.114;5.492;2023-02-15T03:36:04;5.30;72.80
69328;DHT22;56472;52.114;5.492;2023-02-15T03:41:37;5.40;73.30
69328;DHT22;56472;52.114;5.492;2023-02-15T03:44:16;5.40;73.30
69328;DHT22;56472;52.114;5.492;2023-02-15T03:47:22;5.40;73.40
69328;DHT22;56472;52.114;5.492;2023-02-15T03:49:54;5.40;73.50
69328;DHT22;56472;52.114;5.492;2023-02-15T03:52:24;5.50;73.70
69328;DHT22;56472;52.114;5.492;2023-02-15T03:54:52;5.50;73.80
69328;DHT22;56472;52.114;5.492;2023-02-15T03:57:28;5.40;73.90
69328;DHT22;56472;52.114;5.492;2023-02-15T04:00:22;5.50;74.20
69328;DHT22;56472;52.114;5.492;2023-02-15T04:05:43;5.50;74.40
69328;DHT22;56472;52.114;5.492;2023-02-15T04:08:11;5.50;74.40
69328;DHT22;56472;52.114;5.492;2023-02-15T04:10:38;5.50;74.40
69328;DHT22;56472;52.114;5.492;2023-02-15T04:13:30;5.50;74.40
69328;DHT22;56472;52.114;5.492;2023-02-15T04:15:57;5.50;74.40
69328;DHT22;56472;52.114;5.492;2023-02-15T04:18:37;5.60;74.60
69328;DHT22;56472;52.114;5.492;2023-02-15T04:21:25;5.60;74.70
69328;DHT22;56472;52.114;5.492;2023-02-15T04:24:11;5.50;74.70
69328;DHT22;56472;52.114;5.492;2023-02-15T04:26:57;5.60;74.80
69328;DHT22;56472;52.114;5.492;2023-02-15T04:29:25;5.60;74.90
69328;DHT22;56472;52.114;5.492;2023-02-15T04:31:56;5.50;74.90
69328;DHT22;56472;52.114;5.492;2023-02-15T04:34:23;5.50;75.00
69328;DHT22;56472;52.114;5.492;2023-02-15T04:36:50;5.60;75.00
69328;DHT22;56472;52.114;5.492;2023-02-15T04:39:18;5.60;75.00
69328;DHT22;56472;52.114;5.492;2023-02-15T04:41:45;5.60;75.00
69328;DHT22;56472;52.114;5.492;2023-02-15T04:44:12;5.60;75.10
69328;DHT22;56472;52.114;5.492;2023-02-15T04:46:39;5.60;75.10
69328;DHT22;56472;52.114;5.492;2023-02-15T04:49:08;5.60;75.20
69328;DHT22;56472;52.114;5.492;2023-02-15T04:51:35;5.60;75.20
69328;DHT22;56472;52.114;5.492;2023-02-15T04:54:02;5.60;75.20
69328;DHT22;56472;52.114;5.492;2023-02-15T04:56:28;5.60;75.20
69328;DHT22;56472;52.114;5.492;2023-02-15T04:58:56;5.60;75.30
69328;DHT22;56472;52.114;5.492;2023-02-15T05:01:23;5.60;75.30
69328;DHT22;56472;52.114;5.492;2023-02-15T05:03:50;5.50;75.20
69328;DHT22;56472;52.114;5.492;2023-02-15T05:06:17;5.50;75.20
69328;DHT22;56472;52.114;5.492;2023-02-15T05:08:44;5.60;75.30
69328;DHT22;56472;52.114;5.492;2023-02-15T05:11:11;5.50;75.20
69328;DHT22;56472;52.114;5.492;2023-02-15T05:13:38;5.50;75.20
69328;DHT22;56472;52.114;5.492;2023-02-15T05:16:05;5.50;75.20
69328;DHT22;56472;52.114;5.492;2023-02-15T05:18:32;5.50;75.20
69328;DHT22;56472;52.114;5.492;2023-02-15T05:20:59;5.50;75.40
69328;DHT22;56472;52.114;5.492;2023-02-15T05:23:26;5.50;75.50
69328;DHT22;56472;52.114;5.492;2023-02-15T05:25:53;5.50;75.70
69328;DHT22;56472;52.114;5.492;2023-02-15T05:28:38;5.50;75.80
69328;DHT22;56472;52.114;5.492;2023-02-15T05:31:17;5.50;75.80
69328;DHT22;56472;52.114;5.492;2023-02-15T05:33:44;5.50;75.90
69328;DHT22;56472;52.114;5.492;2023-02-15T05:36:12;5.50;75.90
69328;DHT22;56472;52.114;5.492;2023-02-15T05:38:39;5.50;76.00
69328;DHT22;56472;52.114;5.492;2023-02-15T05:41:06;5.50;76.10
69328;DHT22;56472;52.114;5.492;2023-02-15T05:43:34;5.50;76.00
69328;DHT22;56472;52.114;5.492;2023-02-15T05:46:01;5.50;76.10
69328;DHT22;56472;52.114;5.492;2023-02-15T05:48:30;5.50;76.10
69328;DHT22;56472;52.114;5.492;2023-02-15T05:51:17;5.40;76.00
69328;DHT22;56472;52.114;5.492;2023-02-15T05:53:44;5.50;76.20
69328;DHT22;56472;52.114;5.492;2023-02-15T05:56:11;5.50;76.10
69328;DHT22;56472;52.114;5.492;2023-02-15T05:58:40;5.50;76.10
69328;DHT22;56472;52.114;5.492;2023-02-15T06:01:09;5.40;76.10
69328;DHT22;56472;52.114;5.492;2023-02-15T06:03:36;5.40;76.10
69328;DHT22;56472;52.114;5.492;2023-02-15T06:06:03;5.40;76.10
69328;DHT22;56472;52.114;5.492;2023-02-15T06:08:32;5.40;76.10
69328;DHT22;56472;52.114;5.492;2023-02-15T06:10:59;5.40;76.10
69328;DHT22;56472;52.114;5.492;2023-02-15T06:13:26;5.40;76.10
69328;DHT22;56472;52.114;5.492;2023-02-15T06:15:53;5.40;76.20
69328;DHT22;56472;52.114;5.492;2023-02-15T06:18:20;5.40;76.20
69328;DHT22;56472;52.114;5.492;2023-02-15T06:20:48;5.40;76.20
69328;DHT22;56472;52.114;5.492;2023-02-15T06:23:15;5.40;76.20
69328;DHT22;56472;52.114;5.492;2023-02-15T06:25:43;5.40;76.20
69328;DHT22;56472;52.114;5.492;2023-02-15T06:28:10;5.40;76.30
69328;DHT22;56472;52.114;5.492;2023-02-15T06:30:37;5.30;76.20
69328;DHT22;56472;52.114;5.492;2023-02-15T06:33:04;5.30;76.20
69328;DHT22;56472;52.114;5.492;2023-02-15T06:35:31;5.30;76.20
69328;DHT22;56472;52.114;5.492;2023-02-15T06:37:58;5.30;76.20
69328;DHT22;56472;52.114;5.492;2023-02-15T06:40:24;5.30;76.30
69328;DHT22;56472;52.114;5.492;2023-02-15T06:42:51;5.30;76.20
69328;DHT22;56472;52.114;5.492;2023-02-15T06:45:18;5.20;76.10
69328;DHT22;56472;52.114;5.492;2023-02-15T06:47:45;5.20;76.20
69328;DHT22;56472;52.114;5.492;2023-02-15T06:50:12;5.20;76.20
69328;DHT22;56472;52.114;5.492;2023-02-15T06:52:39;5.20;76.30
69328;DHT22;56472;52.114;5.492;2023-02-15T06:55:06;5.20;76.30
69328;DHT22;56472;52.114;5.492;2023-02-15T06:57:33;5.20;76.30
69328;DHT22;56472;52.114;5.492;2023-02-15T07:00:00;5.20;76.30
69328;DHT22;56472;52.114;5.492;2023-02-15T07:02:27;5.20;76.40
69328;DHT22;56472;52.114;5.492;2023-02-15T07:04:54;5.20;76.40
69328;DHT22;56472;52.114;5.492;2023-02-15T07:07:21;5.20;76.30
69328;DHT22;56472;52.114;5.492;2023-02-15T07:09:48;5.20;76.40
69328;DHT22;56472;52.114;5.492;2023-02-15T07:12:15;5.20;76.40
69328;DHT22;56472;52.114;5.492;2023-02-15T07:15:01;5.20;76.40
69328;DHT22;56472;52.114;5.492;2023-02-15T07:17:28;5.20;76.40
69328;DHT22;56472;52.114;5.492;2023-02-15T07:20:04;5.20;76.40
69328;DHT22;56472;52.114;5.492;2023-02-15T07:22:32;5.20;76.40
69328;DHT22;56472;52.114;5.492;2023-02-15T07:25:00;5.20;76.50
69328;DHT22;56472;52.114;5.492;2023-02-15T07:27:27;5.20;76.60
69328;DHT22;56472;52.114;5.492;2023-02-15T07:29:54;5.20;76.80
69328;DHT22;56472;52.114;5.492;2023-02-15T07:32:21;5.20;76.80
69328;DHT22;56472;52.114;5.492;2023-02-15T07:34:48;5.20;77.00
69328;DHT22;56472;52.114;5.492;2023-02-15T07:37:15;5.20;77.00
69328;DHT22;56472;52.114;5.492;2023-02-15T07:39:42;5.20;77.10
69328;DHT22;56472;52.114;5.492;2023-02-15T07:42:09;5.30;77.30
69328;DHT22;56472;52.114;5.492;2023-02-15T07:44:36;5.30;77.30
69328;DHT22;56472;52.114;5.492;2023-02-15T07:47:03;5.30;77.30
69328;DHT22;56472;52.114;5.492;2023-02-15T07:49:30;5.40;77.40
69328;DHT22;56472;52.114;5.492;2023-02-15T07:51:57;5.40;77.40
69328;DHT22;56472;52.114;5.492;2023-02-15T07:54:24;5.40;77.50
69328;DHT22;56472;52.114;5.492;2023-02-15T07:56:50;5.50;77.60
69328;DHT22;56472;52.114;5.492;2023-02-15T07:59:17;5.50;77.70
69328;DHT22;56472;52.114;5.492;2023-02-15T08:01:44;5.50;77.70
69328;DHT22;56472;52.114;5.492;2023-02-15T08:04:11;5.60;77.80
69328;DHT22;56472;52.114;5.492;2023-02-15T08:06:38;5.60;77.90
69328;DHT22;56472;52.114;5.492;2023-02-15T08:09:07;5.60;77.90
69328;DHT22;56472;52.114;5.492;2023-02-15T08:11:36;5.70;77.90
69328;DHT22;56472;52.114;5.492;2023-02-15T08:14:05;5.70;78.00
69328;DHT22;56472;52.114;5.492;2023-02-15T08:16:41;5.80;78.10
69328;DHT22;56472;52.114;5.492;2023-02-15T08:21:39;5.80;78.10
69328;DHT22;56472;52.114;5.492;2023-02-15T08:24:07;5.90;78.20
69328;DHT22;56472;52.114;5.492;2023-02-15T08:26:35;5.90;78.20
69328;DHT22;56472;52.114;5.492;2023-02-15T08:29:03;6.00;78.30
69328;DHT22;56472;52.114;5.492;2023-02-15T08:31:29;6.00;78.40
69328;DHT22;56472;52.114;5.492;2023-02-15T08:33:57;6.00;78.60
69328;DHT22;56472;52.114;5.492;2023-02-15T08:36:27;6.10;78.90
69328;DHT22;56472;52.114;5.492;2023-02-15T08:38:57;6.10;79.00
69328;DHT22;56472;52.114;5.492;2023-02-15T08:41:27;6.20;79.20
69328;DHT22;56472;52.114;5.492;2023-02-15T08:43:55;6.30;79.30
69328;DHT22;56472;52.114;5.492;2023-02-15T08:46:24;6.40;79.40
69328;DHT22;56472;52.114;5.492;2023-02-15T08:48:52;6.40;79.30
69328;DHT22;56472;52.114;5.492;2023-02-15T08:51:22;6.50;79.40
69328;DHT22;56472;52.114;5.492;2023-02-15T08:53:51;6.60;79.50
69328;DHT22;56472;52.114;5.492;2023-02-15T08:56:22;6.60;79.50
69328;DHT22;56472;52.114;5.492;2023-02-15T08:58:50;6.70;79.50
69328;DHT22;56472;52.114;5.492;2023-02-15T09:01:20;6.80;79.60
69328;DHT22;56472;52.114;5.492;2023-02-15T09:03:49;6.90;79.60
69328;DHT22;56472;52.114;5.492;2023-02-15T09:06:17;6.90;79.40
69328;DHT22;56472;52.114;5.492;2023-02-15T09:08:43;7.00;79.50
69328;DHT22;56472;52.114;5.492;2023-02-15T09:11:17;7.00;79.50
69328;DHT22;56472;52.114;5.492;2023-02-15T09:14:00;7.10;79.50
69328;DHT22;56472;52.114;5.492;2023-02-15T09:16:31;7.10;79.50
69328;DHT22;56472;52.114;5.492;2023-02-15T09:18:58;7.20;79.60
69328;DHT22;56472;52.114;5.492;2023-02-15T09:21:26;7.30;79.60
69328;DHT22;56472;52.114;5.492;2023-02-15T09:23:57;7.30;79.50
69328;DHT22;56472;52.114;5.492;2023-02-15T09:26:27;7.40;79.60
69328;DHT22;56472;52.114;5.492;2023-02-15T09:28:57;7.40;79.60
69328;DHT22;56472;52.114;5.492;2023-02-15T09:31:28;7.50;79.70
69328;DHT22;56472;52.114;5.492;2023-02-15T09:33:56;7.60;79.80
69328;DHT22;56472;52.114;5.492;2023-02-15T09:36:31;7.60;79.60
69328;DHT22;56472;52.114;5.492;2023-02-15T09:39:06;7.70;80.60
69328;DHT22;56472;52.114;5.492;2023-02-15T10:26:35;9.10;78.20
69328;DHT22;56472;52.114;5.492;2023-02-15T10:34:38;9.40;78.10
69328;DHT22;56472;52.114;5.492;2023-02-15T10:37:13;9.50;78.00
69328;DHT22;56472;52.114;5.492;2023-02-15T10:48:10;9.90;76.50
69328;DHT22;56472;52.114;5.492;2023-02-15T10:50:59;10.00;76.10
69328;DHT22;56472;52.114;5.492;2023-02-15T10:54:28;10.10;75.60
69328;DHT22;56472;52.114;5.492;2023-02-15T11:02:12;10.50;75.00
69328;DHT22;56472;52.114;5.492;2023-02-15T11:05:29;10.60;74.70
69328;DHT22;56472;52.114;5.492;2023-02-15T11:07:40;10.70;73.90
69328;DHT22;56472;52.114;5.492;2023-02-15T11:10:28;10.80;73.60
69328;DHT22;56472;52.114;5.492;2023-02-15T11:12:58;10.80;74.10
69328;DHT22;56472;52.114;5.492;2023-02-15T11:15:42;10.90;73.10
69328;DHT22;56472;52.114;5.492;2023-02-15T11:20:55;11.20;72.50
69328;DHT22;56472;52.114;5.492;2023-02-15T11:23:24;11.30;72.20
69328;DHT22;56472;52.114;5.492;2023-02-15T11:26:00;11.30;71.30
69328;DHT22;56472;52.114;5.492;2023-02-15T11:28:36;11.40;71.20
69328;DHT22;56472;52.114;5.492;2023-02-15T11:31:26;11.50;71.00
69328;DHT22;56472;52.114;5.492;2023-02-15T11:34:05;11.60;70.50
69328;DHT22;56472;52.114;5.492;2023-02-15T11:36:40;11.70;70.30
69328;DHT22;56472;52.114;5.492;2023-02-15T11:39:15;11.80;70.10
69328;DHT22;56472;52.114;5.492;2023-02-15T11:41:49;11.80;70.10
69328;DHT22;56472;52.114;5.492;2023-02-15T11:44:54;11.90;70.50
69328;DHT22;56472;52.114;5.492;2023-02-15T11:47:23;12.00;70.40
69328;DHT22;56472;52.114;5.492;2023-02-15T11:49:49;12.10;70.40
69328;DHT22;56472;52.114;5.492;2023-02-15T11:52:18;12.20;69.60
69328;DHT22;56472;52.114;5.492;2023-02-15T11:54:50;12.30;69.20
69328;DHT22;56472;52.114;5.492;2023-02-15T11:57:26;12.40;69.60
69328;DHT22;56472;52.114;5.492;2023-02-15T12:02:37;12.60;69.90
69328;DHT22;56472;52.114;5.492;2023-02-15T12:05:21;12.70;69.30
69328;DHT22;56472;52.114;5.492;2023-02-15T12:07:57;12.80;69.00
69328;DHT22;56472;52.114;5.492;2023-02-15T12:10:36;12.90;68.80
69328;DHT22;56472;52.114;5.492;2023-02-15T12:13:15;13.00;68.10
69328;DHT22;56472;52.114;5.492;2023-02-15T12:15:50;13.10;67.90
69328;DHT22;56472;52.114;5.492;2023-02-15T12:18:40;13.20;68.00
69328;DHT22;56472;52.114;5.492;2023-02-15T12:21:23;13.40;67.70
69328;DHT22;56472;52.114;5.492;2023-02-15T12:23:56;13.50;67.30
69328;DHT22;56472;52.114;5.492;2023-02-15T12:26:34;13.60;66.80
69328;DHT22;56472;52.114;5.492;2023-02-15T12:29:07;13.70;66.80
69328;DHT22;56472;52.114;5.492;2023-02-15T12:31:40;13.80;67.00
69328;DHT22;56472;52.114;5.492;2023-02-15T12:34:33;13.90;67.20
69328;DHT22;56472;52.114;5.492;2023-02-15T12:37:10;14.00;66.60
69328;DHT22;56472;52.114;5.492;2023-02-15T12:39:57;14.20;66.10
69328;DHT22;56472;52.114;5.492;2023-02-15T12:42:26;14.30;64.50
69328;DHT22;56472;52.114;5.492;2023-02-15T12:47:21;14.50;63.70
69328;DHT22;56472;52.114;5.492;2023-02-15T12:50:14;14.60;63.60
69328;DHT22;56472;52.114;5.492;2023-02-15T12:52:48;14.80;63.40
69328;DHT22;56472;52.114;5.492;2023-02-15T12:55:34;15.00;63.60
69328;DHT22;56472;52.114;5.492;2023-02-15T12:58:06;15.40;63.80
69328;DHT22;56472;52.114;5.492;2023-02-15T13:00:34;15.90;63.70
69328;DHT22;56472;52.114;5.492;2023-02-15T13:03:01;16.50;62.40
69328;DHT22;56472;52.114;5.492;2023-02-15T13:05:36;17.10;60.40
69328;DHT22;56472;52.114;5.492;2023-02-15T13:08:25;17.50;57.70
69328;DHT22;56472;52.114;5.492;2023-02-15T13:13:29;18.00;56.00
69328;DHT22;56472;52.114;5.492;2023-02-15T13:16:11;18.10;54.50
69328;DHT22;56472;52.114;5.492;2023-02-15T13:18:42;18.20;54.10
69328;DHT22;56472;52.114;5.492;2023-02-15T13:21:21;18.20;53.50
69328;DHT22;56472;52.114;5.492;2023-02-15T13:26:49;18.10;53.50
69328;DHT22;56472;52.114;5.492;2023-02-15T13:29:30;18.20;53.90
69328;DHT22;56472;52.114;5.492;2023-02-15T13:32:22;18.20;53.50
69328;DHT22;56472;52.114;5.492;2023-02-15T13:34:54;18.30;53.20
69328;DHT22;56472;52.114;5.492;2023-02-15T13:48:44;17.90;53.10
69328;DHT22;56472;52.114;5.492;2023-02-15T13:57:12;17.70;53.00
69328;DHT22;56472;52.114;5.492;2023-02-15T13:59:45;17.50;53.00
69328;DHT22;56472;52.114;5.492;2023-02-15T14:04:53;17.30;53.10
69328;DHT22;56472;52.114;5.492;2023-02-15T14:10:38;17.00;53.80
69328;DHT22;56472;52.114;5.492;2023-02-15T14:15:56;16.60;54.40
69328;DHT22;56472;52.114;5.492;2023-02-15T14:18:38;16.40;54.60
69328;DHT22;56472;52.114;5.492;2023-02-15T14:21:24;16.30;55.20
69328;DHT22;56472;52.114;5.492;2023-02-15T14:24:09;16.10;55.40
69328;DHT22;56472;52.114;5.492;2023-02-15T14:32:44;15.80;56.50
69328;DHT22;56472;52.114;5.492;2023-02-15T14:35:18;15.70;57.10
69328;DHT22;56472;52.114;5.492;2023-02-15T14:56:45;15.60;58.70
69328;DHT22;56472;52.114;5.492;2023-02-15T14:59:23;15.50;58.70
69328;DHT22;56472;52.114;5.492;2023-02-15T15:02:12;15.50;58.90
69328;DHT22;56472;52.114;5.492;2023-02-15T15:04:44;15.40;59.00
69328;DHT22;56472;52.114;5.492;2023-02-15T15:09:41;15.30;59.00
69328;DHT22;56472;52.114;5.492;2023-02-15T15:14:48;15.20;59.20
69328;DHT22;56472;52.114;5.492;2023-02-15T15:20:06;15.00;59.50
69328;DHT22;56472;52.114;5.492;2023-02-15T15:22:41;15.00;59.60
69328;DHT22;56472;52.114;5.492;2023-02-15T15:27:45;14.90;59.90
69328;DHT22;56472;52.114;5.492;2023-02-15T15:50:12;14.60;61.10
69328;DHT22;56472;52.114;5.492;2023-02-15T15:52:47;14.60;61.50
69328;DHT22;56472;52.114;5.492;2023-02-15T15:55:21;14.50;61.60
69328;DHT22;56472;52.114;5.492;2023-02-15T15:57:54;14.50;61.60
69328;DHT22;56472;52.114;5.492;2023-02-15T16:00:51;14.50;61.60
69328;DHT22;56472;52.114;5.492;2023-02-15T16:03:23;14.40;61.60
69328;DHT22;56472;52.114;5.492;2023-02-15T16:05:50;14.40;61.60
69328;DHT22;56472;52.114;5.492;2023-02-15T16:08:34;14.40;61.80
69328;DHT22;56472;52.114;5.492;2023-02-15T16:11:16;14.30;62.00
69328;DHT22;56472;52.114;5.492;2023-02-15T16:13:44;14.30;61.90
69328;DHT22;56472;52.114;5.492;2023-02-15T16:16:24;14.20;61.90
69328;DHT22;56472;52.114;5.492;2023-02-15T16:18:51;14.20;62.10
69328;DHT22;56472;52.114;5.492;2023-02-15T16:21:32;14.10;62.10
69328;DHT22;56472;52.114;5.492;2023-02-15T16:29:29;13.90;62.40
69328;DHT22;56472;52.114;5.492;2023-02-15T16:34:24;13.80;62.60
69328;DHT22;56472;52.114;5.492;2023-02-15T16:37:17;13.70;62.50
69328;DHT22;56472;52.114;5.492;2023-02-15T16:39:45;13.60;62.60
69328;DHT22;56472;52.114;5.492;2023-02-15T16:42:15;13.60;62.80
69328;DHT22;56472;52.114;5.492;2023-02-15T16:44:49;13.50;62.80
69328;DHT22;56472;52.114;5.492;2023-02-15T16:47:18;13.50;63.00
69328;DHT22;56472;52.114;5.492;2023-02-15T16:49:48;13.40;63.10
69328;DHT22;56472;52.114;5.492;2023-02-15T16:52:21;13.40;63.10
69328;DHT22;56472;52.114;5.492;2023-02-15T16:54:56;13.30;63.20
69328;DHT22;56472;52.114;5.492;2023-02-15T16:57:28;13.30;63.30
69328;DHT22;56472;52.114;5.492;2023-02-15T17:00:04;13.20;63.40
69328;DHT22;56472;52.114;5.492;2023-02-15T17:03:03;13.20;63.50
69328;DHT22;56472;52.114;5.492;2023-02-15T17:05:53;13.10;63.50
69328;DHT22;56472;52.114;5.492;2023-02-15T17:08:34;13.00;63.60
69328;DHT22;56472;52.114;5.492;2023-02-15T17:11:15;13.00;63.70
69328;DHT22;56472;52.114;5.492;2023-02-15T17:22:20;12.70;64.20
69328;DHT22;56472;52.114;5.492;2023-02-15T17:24:50;12.60;64.30
69328;DHT22;56472;52.114;5.492;2023-02-15T17:27:25;12.50;64.50
69328;DHT22;56472;52.114;5.492;2023-02-15T17:30:01;12.50;64.60
69328;DHT22;56472;52.114;5.492;2023-02-15T17:32:31;12.40;64.70
69328;DHT22;56472;52.114;5.492;2023-02-15T17:35:04;12.40;64.80
69328;DHT22;56472;52.114;5.492;2023-02-15T17:40:27;12.30;65.00
69328;DHT22;56472;52.114;5.492;2023-02-15T17:42:54;12.30;65.20
69328;DHT22;56472;52.114;5.492;2023-02-15T17:45:22;12.20;65.30
69328;DHT22;56472;52.114;5.492;2023-02-15T17:47:51;12.20;65.50
69328;DHT22;56472;52.114;5.492;2023-02-15T17:50:21;12.10;65.50
69328;DHT22;56472;52.114;5.492;2023-02-15T17:52:49;12.10;65.60
69328;DHT22;56472;52.114;5.492;2023-02-15T17:55:19;12.10;65.70
69328;DHT22;56472;52.114;5.492;2023-02-15T17:58:04;12.00;65.70
69328;DHT22;56472;52.114;5.492;2023-02-15T18:00:33;12.00;65.70
69328;DHT22;56472;52.114;5.492;2023-02-15T18:03:20;12.00;65.80
69328;DHT22;56472;52.114;5.492;2023-02-15T18:06:05;11.90;65.90
69328;DHT22;56472;52.114;5.492;2023-02-15T18:08:51;11.90;65.90
69328;DHT22;56472;52.114;5.492;2023-02-15T18:11:38;11.90;66.00
69328;DHT22;56472;52.114;5.492;2023-02-15T18:14:09;11.80;66.00
69328;DHT22;56472;52.114;5.492;2023-02-15T18:16:41;11.80;66.10
69328;DHT22;56472;52.114;5.492;2023-02-15T18:19:21;11.80;66.20
69328;DHT22;56472;52.114;5.492;2023-02-15T18:21:49;11.80;66.20
69328;DHT22;56472;52.114;5.492;2023-02-15T18:24:20;11.80;66.10
69328;DHT22;56472;52.114;5.492;2023-02-15T18:26:47;11.80;66.10
69328;DHT22;56472;52.114;5.492;2023-02-15T18:29:14;11.80;66.10
69328;DHT22;56472;52.114;5.492;2023-02-15T18:31:43;11.80;66.10
69328;DHT22;56472;52.114;5.492;2023-02-15T18:34:24;11.70;66.10
69328;DHT22;56472;52.114;5.492;2023-02-15T18:36:53;11.70;66.00
69328;DHT22;56472;52.114;5.492;2023-02-15T18:41:47;11.60;66.00
69328;DHT22;56472;52.114;5.492;2023-02-15T18:44:13;11.60;66.00
69328;DHT22;56472;52.114;5.492;2023-02-15T18:46:41;11.60;66.10
69328;DHT22;56472;52.114;5.492;2023-02-15T18:49:08;11.60;66.20
69328;DHT22;56472;52.114;5.492;2023-02-15T18:51:35;11.60;66.20
69328;DHT22;56472;52.114;5.492;2023-02-15T18:54:19;11.60;66.30
69328;DHT22;56472;52.114;5.492;2023-02-15T18:56:56;11.50;66.30
69328;DHT22;56472;52.114;5.492;2023-02-15T18:59:25;11.50;66.30
69328;DHT22;56472;52.114;5.492;2023-02-15T19:01:53;11.50;66.30
69328;DHT22;56472;52.114;5.492;2023-02-15T19:04:20;11.50;66.40
69328;DHT22;56472;52.114;5.492;2023-02-15T19:06:50;11.50;66.50
69328;DHT22;56472;52.114;5.492;2023-02-15T19:09:22;11.40;66.40
69328;DHT22;56472;52.114;5.492;2023-02-15T19:11:50;11.40;66.60
69328;DHT22;56472;52.114;5.492;2023-02-15T19:14:29;11.40;66.50
69328;DHT22;56472;52.114;5.492;2023-02-15T19:16:58;11.30;66.60
69328;DHT22;56472;52.114;5.492;2023-02-15T19:19:26;11.30;66.90
69328;DHT22;56472;52.114;5.492;2023-02-15T19:21:53;11.30;67.00
69328;DHT22;56472;52.114;5.492;2023-02-15T19:24:35;11.20;66.90
69328;DHT22;56472;52.114;5.492;2023-02-15T19:27:06;11.20;67.00
69328;DHT22;56472;52.114;5.492;2023-02-15T19:29:33;11.20;67.20
69328;DHT22;56472;52.114;5.492;2023-02-15T19:32:00;11.20;67.30
69328;DHT22;56472;52.114;5.492;2023-02-15T19:34:33;11.10;67.30
69328;DHT22;56472;52.114;5.492;2023-02-15T19:37:00;11.10;67.40
69328;DHT22;56472;52.114;5.492;2023-02-15T19:39:31;11.10;67.50
69328;DHT22;56472;52.114;5.492;2023-02-15T19:42:00;11.10;67.50
69328;DHT22;56472;52.114;5.492;2023-02-15T19:44:27;11.10;67.60
69328;DHT22;56472;52.114;5.492;2023-02-15T19:46:54;11.10;67.50